createdAt,value
2022-09-23T00:00:05.071Z,60.64
2022-09-23T00:01:37.274Z,60.46
2022-09-23T00:03:09.297Z,60.55
2022-09-23T00:04:42.188Z,60.02
2022-09-23T00:06:15.305Z,60.42
2022-09-23T00:07:49.124Z,60.18
2022-09-23T00:09:20.614Z,60.15
2022-09-23T00:10:52.401Z,60.52
2022-09-23T00:12:23.864Z,60.32
2022-09-23T00:13:56.352Z,60.28
2022-09-23T00:15:29.954Z,60.51
2022-09-23T00:17:01.481Z,60.14
2022-09-23T00:18:33.373Z,60.26
2022-09-23T00:20:05.299Z,60.41
2022-09-23T00:21:36.853Z,59.92
2022-09-23T00:23:09.692Z,60.02
2022-09-23T00:24:41.138Z,60.43
2022-09-23T00:26:14.071Z,60.20
2022-09-23T00:27:45.518Z,59.94
2022-09-23T00:29:16.935Z,59.91
2022-09-23T00:30:48.445Z,60.35
2022-09-23T00:32:19.940Z,59.94
2022-09-23T00:33:55.051Z,60.39
2022-09-23T00:35:26.543Z,60.19
2022-09-23T00:36:58.024Z,60.16
2022-09-23T00:38:31.169Z,60.02
2022-09-23T00:40:02.793Z,60.36
2022-09-23T00:41:35.197Z,60.78
2022-09-23T00:43:06.624Z,60.77
2022-09-23T00:44:42.061Z,60.49
2022-09-23T00:46:16.646Z,60.43
2022-09-23T00:47:51.164Z,60.32
2022-09-23T00:49:26.663Z,60.58
2022-09-23T00:50:58.718Z,60.39
2022-09-23T00:52:32.147Z,60.09
2022-09-23T00:54:06.332Z,60.25
2022-09-23T00:55:39.406Z,60.77
2022-09-23T00:57:11.209Z,61.07
2022-09-23T00:58:44.571Z,60.50
2022-09-23T01:00:16.186Z,61.23
2022-09-23T01:01:49.537Z,60.74
2022-09-23T01:03:22.945Z,60.77
2022-09-23T01:04:54.553Z,60.77
2022-09-23T01:06:26.290Z,61.37
2022-09-23T01:07:59.002Z,61.06
2022-09-23T01:09:31.895Z,61.22
2022-09-23T01:11:10.064Z,61.09
2022-09-23T01:12:48.051Z,61.14
2022-09-23T01:14:28.652Z,61.30
2022-09-23T01:16:05.695Z,61.28
2022-09-23T01:17:40.249Z,60.77
2022-09-23T01:19:22.303Z,61.11
2022-09-23T01:21:01.540Z,60.96
2022-09-23T01:22:37.018Z,61.14
2022-09-23T01:24:29.457Z,60.73
2022-09-23T01:26:10.099Z,61.10
2022-09-23T01:27:50.260Z,61.23
2022-09-23T01:29:33.311Z,60.77
2022-09-23T01:31:09.527Z,61.63
2022-09-23T01:32:49.299Z,61.25
2022-09-23T01:34:24.158Z,61.02
2022-09-23T01:36:09.891Z,60.82
2022-09-23T01:37:45.968Z,60.76
2022-09-23T01:39:22.157Z,61.17
2022-09-23T01:40:59.833Z,61.23
2022-09-23T01:42:33.649Z,61.14
2022-09-23T01:44:08.332Z,61.58
2022-09-23T01:45:43.467Z,61.57
2022-09-23T01:47:18.546Z,61.00
2022-09-23T01:48:51.814Z,60.89
2022-09-23T01:50:44.570Z,61.37
2022-09-23T01:52:18.265Z,61.36
2022-09-23T01:53:53.221Z,60.96
2022-09-23T01:55:26.871Z,61.03
2022-09-23T01:57:01.283Z,61.72
2022-09-23T01:58:36.219Z,61.70
2022-09-23T02:00:10.769Z,61.80
2022-09-23T02:01:48.086Z,61.06
2022-09-23T02:03:26.752Z,61.28
2022-09-23T02:05:02.354Z,61.14
2022-09-23T02:06:36.290Z,61.51
2022-09-23T02:08:13.100Z,61.87
2022-09-23T02:09:47.562Z,61.89
2022-09-23T02:11:18.984Z,62.57
2022-09-23T02:12:52.915Z,62.17
2022-09-23T02:14:25.227Z,62.31
2022-09-23T02:16:00.957Z,61.96
2022-09-23T02:17:35.471Z,62.62
2022-09-23T02:19:11.490Z,62.52
2022-09-23T02:20:43.253Z,62.65
2022-09-23T02:22:16.853Z,62.35
2022-09-23T02:23:50.639Z,63.17
2022-09-23T02:25:25.913Z,62.70
2022-09-23T02:27:02.101Z,63.24
2022-09-23T02:28:37.675Z,62.93
2022-09-23T02:30:11.524Z,62.58
2022-09-23T02:31:45.361Z,62.74
2022-09-23T02:33:20.257Z,62.67
2022-09-23T02:34:56.996Z,62.76
2022-09-23T02:36:31.416Z,62.59
2022-09-23T02:38:10.674Z,62.86
2022-09-23T02:39:49.655Z,63.12
2022-09-23T02:41:26.477Z,62.88
2022-09-23T02:43:02.642Z,62.71
2022-09-23T02:44:34.109Z,62.24
2022-09-23T02:46:06.020Z,62.71
2022-09-23T02:47:39.648Z,62.63
2022-09-23T02:49:12.744Z,62.78
2022-09-23T02:50:47.631Z,62.87
2022-09-23T02:52:19.152Z,62.94
2022-09-23T02:53:51.080Z,63.00
2022-09-23T02:55:24.515Z,63.30
2022-09-23T02:56:57.276Z,62.97
2022-09-23T02:58:29.789Z,62.63
2022-09-23T03:00:02.161Z,62.33
2022-09-23T03:01:39.548Z,62.76
2022-09-23T03:03:16.276Z,63.18
2022-09-23T03:04:53.460Z,63.33
2022-09-23T03:06:28.615Z,63.41
2022-09-23T03:08:07.104Z,62.81
2022-09-23T03:09:41.432Z,63.14
2022-09-23T03:11:13.649Z,62.97
2022-09-23T03:12:52.785Z,63.27
2022-09-23T03:14:28.844Z,62.92
2022-09-23T03:16:02.211Z,62.83
2022-09-23T03:17:39.098Z,62.82
2022-09-23T03:19:19.877Z,63.07
2022-09-23T03:20:52.717Z,63.44
2022-09-23T03:22:29.703Z,62.87
2022-09-23T03:24:04.041Z,63.16
2022-09-23T03:25:36.890Z,63.14
2022-09-23T03:27:13.658Z,63.30
2022-09-23T03:28:45.704Z,62.63
2022-09-23T03:30:18.017Z,63.24
2022-09-23T03:31:49.661Z,62.92
2022-09-23T03:33:28.524Z,62.98
2022-09-23T03:35:01.544Z,63.06
2022-09-23T03:37:00.537Z,63.52
2022-09-23T03:38:37.883Z,63.02
2022-09-23T03:40:12.934Z,62.91
2022-09-23T03:41:49.217Z,63.32
2022-09-23T03:43:20.777Z,63.52
2022-09-23T03:44:54.234Z,62.81
2022-09-23T03:46:26.483Z,63.29
2022-09-23T03:47:57.959Z,63.81
2022-09-23T03:49:33.336Z,62.94
2022-09-23T03:51:13.947Z,62.93
2022-09-23T03:52:46.319Z,63.14
2022-09-23T03:54:20.292Z,63.79
2022-09-23T03:55:51.719Z,63.04
2022-09-23T03:57:23.605Z,63.01
2022-09-23T03:58:55.038Z,62.56
2022-09-23T04:00:27.212Z,63.17
2022-09-23T04:02:02.440Z,63.06
2022-09-23T04:03:33.983Z,62.70
2022-09-23T04:05:05.696Z,63.12
2022-09-23T04:06:37.154Z,63.10
2022-09-23T04:08:08.859Z,63.10
2022-09-23T04:09:41.919Z,62.59
2022-09-23T04:11:13.385Z,62.64
2022-09-23T04:12:44.795Z,62.86
2022-09-23T04:14:16.900Z,63.21
2022-09-23T04:15:49.682Z,62.58
2022-09-23T04:17:21.110Z,62.86
2022-09-23T04:18:52.575Z,63.64
2022-09-23T04:20:24.092Z,64.09
2022-09-23T04:21:55.594Z,63.33
2022-09-23T04:23:27.156Z,63.67
2022-09-23T04:24:59.958Z,64.16
2022-09-23T04:26:31.587Z,63.81
2022-09-23T04:28:03.019Z,64.02
2022-09-23T04:29:34.465Z,64.04
2022-09-23T04:31:06.697Z,63.41
2022-09-23T04:32:38.269Z,63.97
2022-09-23T04:34:09.718Z,63.32
2022-09-23T04:35:42.987Z,63.43
2022-09-23T04:37:14.487Z,64.05
2022-09-23T04:38:46.426Z,63.99
2022-09-23T04:40:19.240Z,63.48
2022-09-23T04:41:50.745Z,63.91
2022-09-23T04:43:23.377Z,63.86
2022-09-23T04:44:54.812Z,63.48
2022-09-23T04:46:26.383Z,64.30
2022-09-23T04:47:58.396Z,64.00
2022-09-23T04:49:33.743Z,63.82
2022-09-23T04:51:06.375Z,64.40
2022-09-23T04:52:37.874Z,64.87
2022-09-23T04:54:10.481Z,64.02
2022-09-23T04:55:43.508Z,64.37
2022-09-23T04:57:14.947Z,65.13
2022-09-23T04:58:46.636Z,64.51
2022-09-23T05:00:18.167Z,64.38
2022-09-23T05:01:51.742Z,64.24
2022-09-23T05:03:23.903Z,64.19
2022-09-23T05:04:55.527Z,64.57
2022-09-23T05:06:27.108Z,64.41
2022-09-23T05:07:58.555Z,64.48
2022-09-23T05:09:30.102Z,64.22
2022-09-23T05:11:04.895Z,63.92
2022-09-23T05:12:36.398Z,64.21
2022-09-23T05:14:07.984Z,63.77
2022-09-23T05:15:39.427Z,64.49
2022-09-23T05:17:11.743Z,64.59
2022-09-23T05:18:43.956Z,63.69
2022-09-23T05:20:15.476Z,64.49
2022-09-23T05:21:46.956Z,64.21
2022-09-23T05:23:18.438Z,64.41
2022-09-23T05:24:49.901Z,64.50
2022-09-23T05:26:25.231Z,64.36
2022-09-23T05:27:56.716Z,64.32
2022-09-23T05:29:29.127Z,64.26
2022-09-23T05:31:04.870Z,64.20
2022-09-23T05:32:36.391Z,64.12
2022-09-23T05:34:07.906Z,64.63
2022-09-23T05:35:40.006Z,64.87
2022-09-23T05:37:11.512Z,64.58
2022-09-23T05:38:43.616Z,64.92
2022-09-23T05:40:15.210Z,64.21
2022-09-23T05:41:48.952Z,64.54
2022-09-23T05:43:20.612Z,64.68
2022-09-23T05:44:52.259Z,64.84
2022-09-23T05:46:24.842Z,64.44
2022-09-23T05:47:56.412Z,64.74
2022-09-23T05:49:48.299Z,64.25
2022-09-23T05:51:20.012Z,64.60
2022-09-23T05:52:52.169Z,64.58
2022-09-23T05:54:23.611Z,64.55
2022-09-23T05:55:55.096Z,64.42
2022-09-23T05:57:27.918Z,64.11
2022-09-23T05:59:00.302Z,64.61
2022-09-23T06:00:31.888Z,64.38
2022-09-23T06:02:03.511Z,64.16
2022-09-23T06:03:35.252Z,64.34
2022-09-23T06:05:06.921Z,64.09
2022-09-23T06:06:39.166Z,63.79
2022-09-23T06:08:11.001Z,63.80
2022-09-23T06:09:42.482Z,64.00
2022-09-23T06:11:14.207Z,63.49
2022-09-23T06:12:47.024Z,63.79
2022-09-23T06:14:18.988Z,63.35
2022-09-23T06:15:50.506Z,63.63
2022-09-23T06:17:21.989Z,63.39
2022-09-23T06:18:53.454Z,63.16
2022-09-23T06:20:24.950Z,63.56
2022-09-23T06:21:56.472Z,62.61
2022-09-23T06:23:28.308Z,62.95
2022-09-23T06:24:59.803Z,63.26
2022-09-23T06:26:33.685Z,63.03
2022-09-23T06:28:10.729Z,63.14
2022-09-23T06:29:42.225Z,63.18
2022-09-23T06:31:15.221Z,62.82
2022-09-23T06:32:48.006Z,62.49
2022-09-23T06:34:20.054Z,62.63
2022-09-23T06:35:59.490Z,62.30
2022-09-23T06:37:32.385Z,62.65
2022-09-23T06:39:03.999Z,62.34
2022-09-23T06:40:35.516Z,62.43
2022-09-23T06:42:07.624Z,62.30
2022-09-23T06:43:40.438Z,62.16
2022-09-23T06:45:12.986Z,61.57
2022-09-23T06:46:44.564Z,61.79
2022-09-23T06:48:16.069Z,61.12
2022-09-23T06:49:47.899Z,60.97
2022-09-23T06:51:19.417Z,61.21
2022-09-23T06:52:51.815Z,61.41
2022-09-23T06:54:23.273Z,61.49
2022-09-23T06:55:57.877Z,61.60
2022-09-23T06:57:29.598Z,61.07
2022-09-23T06:59:02.415Z,61.17
2022-09-23T07:00:33.861Z,60.58
2022-09-23T07:02:05.420Z,60.50
2022-09-23T07:03:38.144Z,60.44
2022-09-23T07:05:09.681Z,60.24
2022-09-23T07:06:41.115Z,60.34
2022-09-23T07:08:12.709Z,60.43
2022-09-23T07:09:44.469Z,59.75
2022-09-23T07:11:16.203Z,59.43
2022-09-23T07:12:47.633Z,59.33
2022-09-23T07:14:20.406Z,59.30
2022-09-23T07:15:52.623Z,59.02
2022-09-23T07:17:27.202Z,58.94
2022-09-23T07:18:58.852Z,58.77
2022-09-23T07:20:30.776Z,58.66
2022-09-23T07:22:02.207Z,59.05
2022-09-23T07:23:34.085Z,58.59
2022-09-23T07:25:06.203Z,58.46
2022-09-23T07:26:40.122Z,58.61
2022-09-23T07:28:15.022Z,58.84
2022-09-23T07:29:49.057Z,58.42
2022-09-23T07:31:34.169Z,58.50
2022-09-23T07:33:25.816Z,58.44
2022-09-23T07:35:01.213Z,58.40
2022-09-23T07:36:32.819Z,58.01
2022-09-23T07:38:04.501Z,58.22
2022-09-23T07:39:36.641Z,57.84
2022-09-23T07:41:09.230Z,57.64
2022-09-23T07:42:40.796Z,57.88
2022-09-23T07:44:12.302Z,57.74
2022-09-23T07:45:45.400Z,57.78
2022-09-23T07:47:17.147Z,57.06
2022-09-23T07:48:48.628Z,57.15
2022-09-23T07:50:20.095Z,57.12
2022-09-23T07:51:52.833Z,56.75
2022-09-23T07:53:24.367Z,56.62
2022-09-23T07:54:55.803Z,56.58
2022-09-23T07:56:29.293Z,56.77
2022-09-23T07:58:00.798Z,56.60
2022-09-23T07:59:32.302Z,56.56
2022-09-23T08:01:06.753Z,57.04
2022-09-23T08:02:39.429Z,56.42
2022-09-23T08:04:13.107Z,56.33
2022-09-23T08:05:46.384Z,56.59
2022-09-23T08:07:17.928Z,56.56
2022-09-23T08:08:53.189Z,56.72
2022-09-23T08:10:24.975Z,56.63
2022-09-23T08:11:56.479Z,56.65
2022-09-23T08:13:27.993Z,56.80
2022-09-23T08:15:00.410Z,56.45
2022-09-23T08:16:33.210Z,56.47
2022-09-23T08:18:04.829Z,56.15
2022-09-23T08:19:36.273Z,56.19
2022-09-23T08:21:07.729Z,56.18
2022-09-23T08:22:39.290Z,55.90
2022-09-23T08:24:13.047Z,55.89
2022-09-23T08:25:47.634Z,55.62
2022-09-23T08:27:19.121Z,55.27
2022-09-23T08:28:53.788Z,54.75
2022-09-23T08:30:25.399Z,54.85
2022-09-23T08:31:58.308Z,54.96
2022-09-23T08:33:29.838Z,54.79
2022-09-23T08:35:01.296Z,54.27
2022-09-23T08:36:32.754Z,54.49
2022-09-23T08:38:04.200Z,53.99
2022-09-23T08:39:35.622Z,54.23
2022-09-23T08:41:09.319Z,54.36
2022-09-23T08:42:41.755Z,54.04
2022-09-23T08:44:16.398Z,54.00
2022-09-23T08:45:48.080Z,53.67
2022-09-23T08:47:24.815Z,53.64
2022-09-23T08:48:56.507Z,53.58
2022-09-23T08:50:30.096Z,53.11
2022-09-23T08:52:06.751Z,53.84
2022-09-23T08:53:38.733Z,54.29
2022-09-23T08:55:11.911Z,54.23
2022-09-23T08:56:44.728Z,54.13
2022-09-23T08:58:35.057Z,54.04
2022-09-23T09:00:07.047Z,54.07
2022-09-23T09:01:41.395Z,54.27
2022-09-23T09:03:19.618Z,54.14
2022-09-23T09:04:53.689Z,54.14
2022-09-23T09:06:27.864Z,54.14
2022-09-23T09:08:00.507Z,54.29
2022-09-23T09:09:33.756Z,54.49
2022-09-23T09:11:06.063Z,54.26
2022-09-23T09:12:40.915Z,53.77
2022-09-23T09:14:17.374Z,53.88
2022-09-23T09:15:55.179Z,53.31
2022-09-23T09:17:35.291Z,53.39
2022-09-23T09:19:13.338Z,53.14
2022-09-23T09:20:49.444Z,53.02
2022-09-23T09:22:26.238Z,52.93
2022-09-23T09:23:59.995Z,52.55
2022-09-23T09:25:39.904Z,52.71
2022-09-23T09:27:12.668Z,52.67
2022-09-23T09:28:47.532Z,52.53
2022-09-23T09:30:19.520Z,52.48
2022-09-23T09:31:51.034Z,53.00
2022-09-23T09:33:26.387Z,52.44
2022-09-23T09:35:00.887Z,52.41
2022-09-23T09:36:36.040Z,52.42
2022-09-23T09:38:07.821Z,52.02
2022-09-23T09:39:39.396Z,51.86
2022-09-23T09:41:13.653Z,51.52
2022-09-23T09:42:47.201Z,51.23
2022-09-23T09:44:24.133Z,50.48
2022-09-23T09:46:03.393Z,50.51
2022-09-23T09:47:40.493Z,50.24
2022-09-23T09:49:13.915Z,50.49
2022-09-23T09:50:49.038Z,49.71
2022-09-23T09:52:22.542Z,49.77
2022-09-23T09:53:55.946Z,49.74
2022-09-23T09:55:28.496Z,49.92
2022-09-23T09:57:03.729Z,48.74
2022-09-23T09:58:43.699Z,48.52
2022-09-23T10:00:34.381Z,48.39
2022-09-23T10:02:12.848Z,48.07
2022-09-23T10:03:44.745Z,47.12
2022-09-23T10:05:25.883Z,47.42
2022-09-23T10:07:07.067Z,47.74
2022-09-23T10:08:38.502Z,47.63
2022-09-23T10:10:31.820Z,47.39
2022-09-23T10:12:13.017Z,45.96
2022-09-23T10:14:01.355Z,46.26
2022-09-23T10:15:44.485Z,46.77
2022-09-23T10:17:19.273Z,46.89
2022-09-23T10:18:53.336Z,46.69
2022-09-23T10:20:24.850Z,46.98
2022-09-23T10:21:59.808Z,46.29
2022-09-23T10:23:33.348Z,46.51
2022-09-23T10:25:07.748Z,46.62
2022-09-23T10:26:43.243Z,46.46
2022-09-23T10:28:32.165Z,46.14
2022-09-23T10:30:05.487Z,45.90
2022-09-23T10:31:38.358Z,46.15
2022-09-23T10:33:26.132Z,45.96
2022-09-23T10:34:59.007Z,46.32
2022-09-23T10:36:32.548Z,45.90
2022-09-23T10:38:04.087Z,45.98
2022-09-23T10:39:55.315Z,45.83
2022-09-23T10:41:49.632Z,46.08
2022-09-23T10:43:45.642Z,46.21
2022-09-23T10:45:39.690Z,46.08
2022-09-23T10:47:20.104Z,44.98
2022-09-23T10:48:58.025Z,45.07
2022-09-23T10:50:34.858Z,45.03
2022-09-23T10:52:14.727Z,44.57
2022-09-23T10:53:53.312Z,45.30
2022-09-23T10:55:36.882Z,45.36
2022-09-23T10:57:36.274Z,44.80
2022-09-23T10:59:27.966Z,44.18
2022-09-23T11:01:05.238Z,44.96
2022-09-23T11:02:47.580Z,45.04
2022-09-23T11:04:35.856Z,45.17
2022-09-23T11:06:13.152Z,45.40
2022-09-23T11:07:47.417Z,45.28
2022-09-23T11:09:27.625Z,45.06
2022-09-23T11:11:09.914Z,45.07
2022-09-23T11:12:48.117Z,45.54
2022-09-23T11:14:28.351Z,45.21
2022-09-23T11:16:02.882Z,45.39
2022-09-23T11:17:52.000Z,44.83
2022-09-23T11:19:44.727Z,44.53
2022-09-23T11:21:26.437Z,44.90
2022-09-23T11:23:10.304Z,45.21
2022-09-23T11:24:51.972Z,44.89
2022-09-23T11:26:32.900Z,45.26
2022-09-23T11:28:20.700Z,44.55
2022-09-23T11:29:58.212Z,44.91
2022-09-23T11:31:37.295Z,45.53
2022-09-23T11:33:18.245Z,45.66
2022-09-23T11:34:58.116Z,45.30
2022-09-23T11:36:32.701Z,44.37
2022-09-23T11:38:07.904Z,44.38
2022-09-23T11:39:44.066Z,44.56
2022-09-23T11:41:18.557Z,44.72
2022-09-23T11:42:53.628Z,45.10
2022-09-23T11:44:28.364Z,45.05
2022-09-23T11:46:02.931Z,44.47
2022-09-23T11:47:39.831Z,44.24
2022-09-23T11:49:15.869Z,44.10
2022-09-23T11:50:49.966Z,44.09
2022-09-23T11:52:24.826Z,44.67
2022-09-23T11:53:59.674Z,43.96
2022-09-23T11:55:33.493Z,43.45
2022-09-23T11:57:09.186Z,43.68
2022-09-23T11:58:50.019Z,43.77
2022-09-23T12:00:27.834Z,44.10
2022-09-23T12:02:14.210Z,43.62
2022-09-23T12:03:51.974Z,43.49
2022-09-23T12:05:24.548Z,43.89
2022-09-23T12:07:00.995Z,43.74
2022-09-23T12:08:33.360Z,44.05
2022-09-23T12:10:06.300Z,42.78
2022-09-23T12:11:40.438Z,43.22
2022-09-23T12:13:16.089Z,43.43
2022-09-23T12:14:55.678Z,43.08
2022-09-23T12:16:45.275Z,42.57
2022-09-23T12:18:23.433Z,42.01
2022-09-23T12:20:22.205Z,41.31
2022-09-23T12:22:06.857Z,41.72
2022-09-23T12:23:48.724Z,41.95
2022-09-23T12:25:33.442Z,41.93
2022-09-23T12:27:07.050Z,41.92
2022-09-23T12:28:40.842Z,41.20
2022-09-23T12:30:14.872Z,41.60
2022-09-23T12:31:46.866Z,41.38
2022-09-23T12:33:24.405Z,41.63
2022-09-23T12:34:56.223Z,41.75
2022-09-23T12:36:29.932Z,42.15
2022-09-23T12:38:01.757Z,42.29
2022-09-23T12:39:35.435Z,42.12
2022-09-23T12:41:19.251Z,41.58
2022-09-23T12:42:51.421Z,41.96
2022-09-23T12:44:31.469Z,41.93
2022-09-23T12:46:20.641Z,42.24
2022-09-23T12:47:52.342Z,42.24
2022-09-23T12:49:27.495Z,42.47
2022-09-23T12:51:12.798Z,42.04
2022-09-23T12:52:44.225Z,42.12
2022-09-23T12:54:22.267Z,42.34
2022-09-23T12:55:54.250Z,42.42
2022-09-23T12:57:40.674Z,42.68
2022-09-23T12:59:21.432Z,42.38
2022-09-23T13:01:06.151Z,42.45
2022-09-23T13:02:40.720Z,42.55
2022-09-23T13:04:51.034Z,42.48
2022-09-23T13:06:41.105Z,42.46
2022-09-23T13:08:15.059Z,41.94
2022-09-23T13:09:48.265Z,41.82
2022-09-23T13:11:22.728Z,41.94
2022-09-23T13:12:55.797Z,42.36
2022-09-23T13:14:29.254Z,42.65
2022-09-23T13:16:11.661Z,42.58
2022-09-23T13:17:44.566Z,42.80
2022-09-23T13:19:35.325Z,42.79
2022-09-23T13:21:16.223Z,43.10
2022-09-23T13:23:04.022Z,42.92
2022-09-23T13:24:45.847Z,42.59
2022-09-23T13:26:17.772Z,42.50
2022-09-23T13:27:50.498Z,42.48
2022-09-23T13:29:23.802Z,42.29
2022-09-23T13:30:55.628Z,42.76
2022-09-23T13:32:29.423Z,42.87
2022-09-23T13:34:05.386Z,42.35
2022-09-23T13:35:38.203Z,42.51
2022-09-23T13:37:22.171Z,42.56
2022-09-23T13:39:12.966Z,42.00
2022-09-23T13:40:44.985Z,41.87
2022-09-23T13:42:22.263Z,40.82
2022-09-23T13:43:56.655Z,40.76
2022-09-23T13:45:30.921Z,40.75
2022-09-23T13:47:03.235Z,40.75
2022-09-23T13:48:34.691Z,40.76
2022-09-23T13:50:13.124Z,40.69
2022-09-23T13:51:45.176Z,40.09
2022-09-23T13:53:20.467Z,40.47
2022-09-23T13:54:52.294Z,40.95
2022-09-23T13:56:24.844Z,40.45
2022-09-23T13:57:57.307Z,40.57
2022-09-23T13:59:29.631Z,40.65
2022-09-23T14:01:01.214Z,39.76
2022-09-23T14:02:32.794Z,39.96
2022-09-23T14:04:04.604Z,39.53
2022-09-23T14:05:38.330Z,39.24
2022-09-23T14:07:11.050Z,39.01
2022-09-23T14:08:44.862Z,38.75
2022-09-23T14:10:18.957Z,38.64
2022-09-23T14:11:51.807Z,38.88
2022-09-23T14:13:26.069Z,37.42
2022-09-23T14:14:57.864Z,38.17
2022-09-23T14:16:29.583Z,38.38
2022-09-23T14:18:02.797Z,38.00
2022-09-23T14:19:35.236Z,38.36
2022-09-23T14:21:25.827Z,38.24
2022-09-23T14:23:04.734Z,38.33
2022-09-23T14:24:36.979Z,38.57
2022-09-23T14:26:08.478Z,38.40
2022-09-23T14:27:40.790Z,38.34
2022-09-23T14:29:14.121Z,38.31
2022-09-23T14:30:48.117Z,38.12
2022-09-23T14:32:21.142Z,38.59
2022-09-23T14:33:52.706Z,38.60
2022-09-23T14:35:26.972Z,38.46
2022-09-23T14:37:27.565Z,38.65
2022-09-23T14:39:03.319Z,38.11
2022-09-23T14:40:36.005Z,38.69
2022-09-23T14:42:07.743Z,38.66
2022-09-23T14:43:39.878Z,39.13
2022-09-23T14:45:14.187Z,39.26
2022-09-23T14:46:52.011Z,39.08
2022-09-23T14:48:25.018Z,38.79
2022-09-23T14:50:15.141Z,39.06
2022-09-23T14:51:48.333Z,39.20
2022-09-23T14:53:37.806Z,39.41
2022-09-23T14:55:15.255Z,39.49
2022-09-23T14:56:47.235Z,39.55
2022-09-23T14:58:19.912Z,39.48
2022-09-23T14:59:52.948Z,39.48
2022-09-23T15:01:34.990Z,39.36
2022-09-23T15:03:14.585Z,39.69
2022-09-23T15:04:46.064Z,39.75
2022-09-23T15:06:17.750Z,39.58
2022-09-23T15:07:50.584Z,39.60
2022-09-23T15:09:25.980Z,39.40
2022-09-23T15:10:58.399Z,39.06
2022-09-23T15:12:29.965Z,39.86
2022-09-23T15:14:14.183Z,39.47
2022-09-23T15:15:55.073Z,39.57
2022-09-23T15:17:30.426Z,40.14
2022-09-23T15:19:02.024Z,39.92
2022-09-23T15:20:34.322Z,40.14
2022-09-23T15:22:07.693Z,39.58
2022-09-23T15:23:46.738Z,39.93
2022-09-23T15:25:21.328Z,39.65
2022-09-23T15:26:57.713Z,39.75
2022-09-23T15:28:29.154Z,40.01
2022-09-23T15:30:03.605Z,40.10
2022-09-23T15:31:35.241Z,40.05
2022-09-23T15:33:06.806Z,40.17
2022-09-23T15:34:38.319Z,40.16
2022-09-23T15:36:15.333Z,40.07
2022-09-23T15:37:48.547Z,40.06
2022-09-23T15:39:20.273Z,40.13
2022-09-23T15:40:54.118Z,40.53
2022-09-23T15:42:25.686Z,40.67
2022-09-23T15:43:58.159Z,40.58
2022-09-23T15:45:33.166Z,40.33
2022-09-23T15:47:04.998Z,40.64
2022-09-23T15:48:38.650Z,40.80
2022-09-23T15:50:12.118Z,40.84
2022-09-23T15:51:43.694Z,41.10
2022-09-23T15:53:17.422Z,40.86
2022-09-23T15:54:48.934Z,41.35
2022-09-23T15:56:21.919Z,41.08
2022-09-23T15:57:53.417Z,41.36
2022-09-23T15:59:24.935Z,41.16
2022-09-23T16:00:57.311Z,41.03
2022-09-23T16:02:32.335Z,41.31
2022-09-23T16:04:04.663Z,41.58
2022-09-23T16:05:37.842Z,41.65
2022-09-23T16:07:14.274Z,41.76
2022-09-23T16:08:45.810Z,41.92
2022-09-23T16:10:17.346Z,41.86
2022-09-23T16:11:52.126Z,41.99
2022-09-23T16:13:23.798Z,42.05
2022-09-23T16:14:55.266Z,42.12
2022-09-23T16:16:27.928Z,42.28
2022-09-23T16:18:00.018Z,42.13
2022-09-23T16:19:34.178Z,42.23
2022-09-23T16:21:07.575Z,42.39
2022-09-23T16:22:39.303Z,42.31
2022-09-23T16:24:17.775Z,42.37
2022-09-23T16:25:49.285Z,42.67
2022-09-23T16:27:22.466Z,42.86
2022-09-23T16:28:55.190Z,42.88
2022-09-23T16:30:27.311Z,42.98
2022-09-23T16:32:00.972Z,43.02
2022-09-23T16:33:32.557Z,43.29
2022-09-23T16:35:08.324Z,42.99
2022-09-23T16:36:41.859Z,43.05
2022-09-23T16:38:13.693Z,43.13
2022-09-23T16:39:45.212Z,43.40
2022-09-23T16:41:16.798Z,43.39
2022-09-23T16:42:52.096Z,43.38
2022-09-23T16:44:23.580Z,43.81
2022-09-23T16:45:55.126Z,43.85
2022-09-23T16:47:26.721Z,44.04
2022-09-23T16:48:58.690Z,44.24
2022-09-23T16:50:31.825Z,44.31
2022-09-23T16:52:03.378Z,44.27
2022-09-23T16:53:35.188Z,44.62
2022-09-23T16:55:08.641Z,44.50
2022-09-23T16:56:44.179Z,44.62
2022-09-23T16:58:17.153Z,44.69
2022-09-23T17:00:07.264Z,44.95
2022-09-23T17:01:57.668Z,44.87
2022-09-23T17:03:41.469Z,44.99
2022-09-23T17:05:18.398Z,44.95
2022-09-23T17:06:50.887Z,45.20
2022-09-23T17:08:22.458Z,45.64
2022-09-23T17:09:53.973Z,45.22
2022-09-23T17:11:25.453Z,45.31
2022-09-23T17:12:58.798Z,45.47
2022-09-23T17:14:31.625Z,45.53
2022-09-23T17:16:03.602Z,45.67
2022-09-23T17:17:38.257Z,45.74
2022-09-23T17:19:10.826Z,45.79
2022-09-23T17:20:42.286Z,45.77
2022-09-23T17:22:14.255Z,46.08
2022-09-23T17:23:45.888Z,46.08
2022-09-23T17:25:18.890Z,45.93
2022-09-23T17:26:53.317Z,46.32
2022-09-23T17:28:25.116Z,46.47
2022-09-23T17:29:58.808Z,46.67
2022-09-23T17:31:30.721Z,46.63
2022-09-23T17:33:02.251Z,46.61
2022-09-23T17:34:35.007Z,47.02
2022-09-23T17:36:07.752Z,47.69
2022-09-23T17:37:39.537Z,47.66
2022-09-23T17:39:11.002Z,47.99
2022-09-23T17:40:49.611Z,48.14
2022-09-23T17:42:21.152Z,48.24
2022-09-23T17:44:00.501Z,48.20
2022-09-23T17:45:36.669Z,48.42
2022-09-23T17:47:08.233Z,48.57
2022-09-23T17:48:44.144Z,48.33
2022-09-23T17:50:15.878Z,48.46
2022-09-23T17:51:47.871Z,48.82
2022-09-23T17:53:19.776Z,48.89
2022-09-23T17:54:51.243Z,48.83
2022-09-23T17:56:24.897Z,48.99
2022-09-23T17:57:56.410Z,48.92
2022-09-23T17:59:27.901Z,49.04
2022-09-23T18:01:00.908Z,49.27
2022-09-23T18:02:32.548Z,49.37
2022-09-23T18:04:05.659Z,49.89
2022-09-23T18:05:37.281Z,49.77
2022-09-23T18:07:08.725Z,49.99
2022-09-23T18:08:40.917Z,50.12
2022-09-23T18:10:12.467Z,50.32
2022-09-23T18:11:44.981Z,50.48
2022-09-23T18:13:16.527Z,50.47
2022-09-23T18:14:48.521Z,50.59
2022-09-23T18:16:22.767Z,51.00
2022-09-23T18:17:54.356Z,50.98
2022-09-23T18:19:26.074Z,51.34
2022-09-23T18:20:59.970Z,51.36
2022-09-23T18:22:31.412Z,51.19
2022-09-23T18:25:54.472Z,51.19
2022-09-23T18:27:25.997Z,51.58
2022-09-23T18:29:01.329Z,51.51
2022-09-23T18:30:33.453Z,51.62
2022-09-23T18:32:08.232Z,51.84
2022-09-23T18:33:41.775Z,52.19
2022-09-23T18:35:13.273Z,52.18
2022-09-23T18:36:44.986Z,52.14
2022-09-23T18:38:16.510Z,52.20
2022-09-23T18:39:48.650Z,52.15
2022-09-23T18:41:20.266Z,52.40
2022-09-23T18:42:51.770Z,52.42
2022-09-23T18:44:23.435Z,52.35
2022-09-23T18:45:56.093Z,52.47
2022-09-23T18:47:47.471Z,52.47
2022-09-23T18:49:37.417Z,52.73
2022-09-23T18:51:09.367Z,52.87
2022-09-23T18:52:40.840Z,53.00
2022-09-23T18:54:12.305Z,53.03
2022-09-23T18:55:43.780Z,53.00
2022-09-23T18:57:15.252Z,52.94
2022-09-23T18:58:47.655Z,53.25
2022-09-23T19:00:19.846Z,53.34
2022-09-23T19:01:51.561Z,53.40
2022-09-23T19:03:24.417Z,53.63
2022-09-23T19:04:56.644Z,53.66
2022-09-23T19:06:29.149Z,53.65
2022-09-23T19:08:00.790Z,53.64
2022-09-23T19:09:32.324Z,53.47
2022-09-23T19:11:05.359Z,53.69
2022-09-23T19:12:36.902Z,53.82
2022-09-23T19:14:11.024Z,53.99
2022-09-23T19:15:43.089Z,54.38
2022-09-23T19:17:14.574Z,54.63
2022-09-23T19:18:47.412Z,54.85
2022-09-23T19:20:18.957Z,54.84
2022-09-23T19:21:50.447Z,54.77
2022-09-23T19:23:22.209Z,54.82
2022-09-23T19:24:53.688Z,54.84
2022-09-23T19:26:26.555Z,55.27
2022-09-23T19:27:58.040Z,55.10
2022-09-23T19:29:29.842Z,55.17
2022-09-23T19:31:08.623Z,55.32
2022-09-23T19:32:43.920Z,55.21
2022-09-23T19:34:18.108Z,55.28
2022-09-23T19:35:51.270Z,55.22
2022-09-23T19:37:23.029Z,55.46
2022-09-23T19:38:55.202Z,55.48
2022-09-23T19:40:26.903Z,55.39
2022-09-23T19:41:58.960Z,55.28
2022-09-23T19:43:30.433Z,55.42
2022-09-23T19:45:01.910Z,55.41
2022-09-23T19:46:34.487Z,55.55
2022-09-23T19:48:09.659Z,55.61
2022-09-23T19:49:42.747Z,55.51
2022-09-23T19:51:14.715Z,55.79
2022-09-23T19:52:46.140Z,56.00
2022-09-23T19:54:20.858Z,56.18
2022-09-23T19:55:53.554Z,56.12
2022-09-23T19:57:33.363Z,56.56
2022-09-23T19:59:07.144Z,56.62
2022-09-23T20:00:38.675Z,56.70
2022-09-23T20:02:10.919Z,56.75
2022-09-23T20:03:42.527Z,56.80
2022-09-23T20:05:19.665Z,56.77
2022-09-23T20:06:52.016Z,57.05
2022-09-23T20:08:23.892Z,57.34
2022-09-23T20:09:55.765Z,57.34
2022-09-23T20:11:28.778Z,57.27
2022-09-23T20:13:00.480Z,57.33
2022-09-23T20:14:31.942Z,57.38
2022-09-23T20:16:08.627Z,57.33
2022-09-23T20:17:40.850Z,57.14
2022-09-23T20:19:12.925Z,57.17
2022-09-23T20:20:53.235Z,57.12